X  Close Metar Aviation Weather Data        KDWH George Bush Intercontinental Airport
Temperature
66°F Temperature
43°F Dewpoint
43% Humidity



Wind
0 MPH
0 KM/H
0 M/S
0 KTS



Calm
N
Current Conditions

Sunny Sunny
Pressure 1024 (hPa) - 30.24 (inHg)
Visibility 10 (mile) - 16 (km)
Airport
Airport-code KDWH

Location: George Bush Intercontinental Airport
Distance: 14 (mi)

Metar:
METAR KDWH 301853Z 00000KT 10SM CLR 19/06 A3024 RMK AO2 SLP240 T01890061

Time: 10-30-2020 13:53 CDT